Time;durP1;ratioP1;P1;durP2;ratioP2;P2;SDS_P1;SDS_P2;PMS_P1;PMS_P2;Temp;Humidity;BMP_temperature;BMP_pressure;BME280_temperature;BME280_humidity;BME280_pressure;Samples;Min_cycle;Max_cycle;Signal;HPM_P1;HPM_P2
2022/12/18 00:02:25;;;;;;;11.37;8.57;;;;;;;;;;6162526;28;20308;-84
2022/12/18 00:05:31;;;;;;;13.83;8.20;;;;;;;;;;6162781;28;20295;-88
2022/12/18 00:08:36;;;;;;;14.43;8.20;;;;;;;;;;6163041;28;20303;-88
2022/12/18 00:11:41;;;;;;;13.37;7.97;;;;;;;;;;6164929;28;20276;-88
2022/12/18 00:14:46;;;;;;;13.63;8.53;;;;;;;;;;6152083;29;20589;-91
2022/12/18 00:17:52;;;;;;;14.07;8.13;;;;;;;;;;6169457;28;20301;-91
2022/12/18 00:21:00;;;;;;;13.37;8.13;;;;;;;;;;6169485;28;20466;-92
2022/12/18 00:24:06;;;;;;;14.03;8.30;;;;;;;;;;6168370;28;20363;-92
2022/12/18 00:27:11;;;;;;;17.10;8.13;;;;;;;;;;6168139;28;20274;-91
2022/12/18 00:30:17;;;;;;;12.20;8.10;;;;;;;;;;6167995;29;20285;-92
2022/12/18 00:33:22;;;;;;;12.17;7.77;;;;;;;;;;6166637;28;20308;-92
2022/12/18 00:36:31;;;;;;;12.27;7.90;;;;;;;;;;6167657;28;20277;-92
2022/12/18 00:39:35;;;;;;;14.77;8.13;;;;;;;;;;6166665;28;20298;-88
2022/12/18 00:42:58;;;;;;;12.90;8.07;;;;;;;;;;6150164;28;20297;-87
2022/12/18 00:46:06;;;;;;;12.50;7.80;;;;;;;;;;6166432;29;20273;-90
2022/12/18 00:49:12;;;;;;;15.93;7.93;;;;;;;;;;6165308;28;20309;-88
2022/12/18 00:52:19;;;;;;;12.53;7.93;;;;;;;;;;6166554;28;20280;-87
2022/12/18 00:55:25;;;;;;;11.70;7.77;;;;;;;;;;6168828;29;20297;-87
2022/12/18 00:58:30;;;;;;;14.97;8.37;;;;;;;;;;6169408;28;20473;-87
2022/12/18 01:01:37;;;;;;;12.33;7.73;;;;;;;;;;6165819;29;20538;-87
2022/12/18 01:04:43;;;;;;;10.73;7.73;;;;;;;;;;6166103;28;20312;-87
2022/12/18 01:07:49;;;;;;;10.73;7.93;;;;;;;;;;6142280;28;20400;-86
2022/12/18 01:10:55;;;;;;;11.97;8.07;;;;;;;;;;6141206;29;20444;-88
2022/12/18 01:14:04;;;;;;;12.17;7.63;;;;;;;;;;6140934;29;20297;-86
2022/12/18 01:17:09;;;;;;;12.17;7.77;;;;;;;;;;6141430;29;20466;-87
2022/12/18 01:20:15;;;;;;;10.43;7.53;;;;;;;;;;6125628;29;20281;-87
2022/12/18 01:23:21;;;;;;;11.33;7.33;;;;;;;;;;6124322;29;20302;-88
2022/12/18 01:26:29;;;;;;;9.00;6.17;;;;;;;;;;6141847;29;20274;-86
2022/12/18 01:29:34;;;;;;;10.80;7.53;;;;;;;;;;6124881;29;20307;-88
2022/12/18 01:32:41;;;;;;;12.27;7.77;;;;;;;;;;6124408;29;20301;-88
2022/12/18 01:35:46;;;;;;;11.47;7.43;;;;;;;;;;6140668;29;20553;-88
2022/12/18 01:38:54;;;;;;;11.23;8.20;;;;;;;;;;6141575;29;20477;-88
2022/12/18 01:42:04;;;;;;;10.53;7.40;;;;;;;;;;6140969;29;20282;-88
2022/12/18 01:45:28;;;;;;;12.67;8.43;;;;;;;;;;6139622;29;20283;-88
2022/12/18 01:48:33;;;;;;;15.07;7.70;;;;;;;;;;6141239;29;20569;-87
2022/12/18 01:51:38;;;;;;;12.23;7.47;;;;;;;;;;6140386;29;20296;-87
2022/12/18 01:54:46;;;;;;;12.90;8.13;;;;;;;;;;6123450;29;20304;-87
2022/12/18 01:57:53;;;;;;;14.57;8.87;;;;;;;;;;6141443;28;20320;-87
2022/12/18 02:00:58;;;;;;;12.43;8.07;;;;;;;;;;6140211;29;20270;-87
2022/12/18 02:04:21;;;;;;;13.27;8.07;;;;;;;;;;6171016;23;20305;-80
2022/12/18 02:07:37;;;;;;;12.10;7.63;;;;;;;;;;6165322;28;20604;-79
2022/12/18 02:10:49;;;;;;;14.33;8.10;;;;;;;;;;6188589;28;20276;-79
2022/12/18 02:14:05;;;;;;;13.13;8.33;;;;;;;;;;6165781;28;20310;-79
2022/12/18 02:17:15;;;;;;;16.73;8.87;;;;;;;;;;6163331;28;20446;-80
2022/12/18 02:20:23;;;;;;;15.60;8.40;;;;;;;;;;6166627;28;20269;-79
2022/12/18 02:23:47;;;;;;;11.03;8.23;;;;;;;;;;6170437;28;20304;-79
2022/12/18 02:26:56;;;;;;;13.87;7.93;;;;;;;;;;6187190;28;20269;-80
2022/12/18 02:30:06;;;;;;;10.40;7.90;;;;;;;;;;6186447;28;20480;-78
2022/12/18 02:33:14;;;;;;;12.17;7.80;;;;;;;;;;6186287;28;20300;-79
2022/12/18 02:36:21;;;;;;;10.43;7.70;;;;;;;;;;6186291;28;20272;-79
2022/12/18 02:39:27;;;;;;;10.50;7.63;;;;;;;;;;6166331;28;20300;-79
2022/12/18 02:42:41;;;;;;;10.23;7.47;;;;;;;;;;6162279;28;20624;-79
2022/12/18 02:45:49;;;;;;;13.33;8.47;;;;;;;;;;6162662;29;20278;-79
2022/12/18 02:49:02;;;;;;;12.40;8.87;;;;;;;;;;6161995;28;20297;-79
2022/12/18 02:52:18;;;;;;;12.13;8.27;;;;;;;;;;6161980;28;20568;-78
2022/12/18 02:55:33;;;;;;;13.97;7.93;;;;;;;;;;6162585;29;20272;-79
2022/12/18 02:58:51;;;;;;;13.30;8.20;;;;;;;;;;6161704;28;20293;-79
2022/12/18 03:02:21;;;;;;;13.07;7.60;;;;;;;;;;6161739;28;20277;-79
2022/12/18 03:05:31;;;;;;;12.90;7.87;;;;;;;;;;6161755;29;20490;-79
2022/12/18 03:08:40;;;;;;;10.43;7.80;;;;;;;;;;6145728;29;20549;-79
2022/12/18 03:15:18;;;;;;;10.13;7.30;;;;;;;;;;6167334;29;20278;-79
2022/12/18 03:18:34;;;;;;;9.10;6.93;;;;;;;;;;6165308;28;20289;-79
2022/12/18 03:21:43;;;;;;;10.47;6.90;;;;;;;;;;6162335;29;20272;-80
2022/12/18 03:24:51;;;;;;;13.33;7.67;;;;;;;;;;6161585;28;20299;-79
2022/12/18 03:27:59;;;;;;;9.40;7.13;;;;;;;;;;6161730;28;20304;-79
2022/12/18 03:31:08;;;;;;;11.57;7.07;;;;;;;;;;6161893;29;20463;-79
2022/12/18 03:34:18;;;;;;;9.97;7.27;;;;;;;;;;6161627;28;20325;-79
2022/12/18 03:37:24;;;;;;;12.43;7.20;;;;;;;;;;6145648;28;20304;-79
2022/12/18 03:40:35;;;;;;;10.13;7.10;;;;;;;;;;6162121;29;20277;-79
2022/12/18 03:43:48;;;;;;;10.87;7.23;;;;;;;;;;6161402;28;20300;-79
2022/12/18 03:46:59;;;;;;;10.60;7.00;;;;;;;;;;6163144;28;20273;-79
2022/12/18 03:50:12;;;;;;;11.10;7.30;;;;;;;;;;6167000;28;20346;-79
2022/12/18 03:53:28;;;;;;;10.17;6.70;;;;;;;;;;6166022;28;20300;-79
2022/12/18 03:56:43;;;;;;;9.50;7.43;;;;;;;;;;6167414;28;20297;-78
2022/12/18 03:59:51;;;;;;;11.17;6.93;;;;;;;;;;6167036;28;20300;-79
2022/12/18 04:03:02;;;;;;;9.67;6.80;;;;;;;;;;6184503;28;20304;-79
2022/12/18 04:06:14;;;;;;;8.03;6.80;;;;;;;;;;6189316;28;20286;-79
2022/12/18 04:09:21;;;;;;;10.83;7.27;;;;;;;;;;6189624;28;20304;-79
2022/12/18 04:12:27;;;;;;;12.27;7.10;;;;;;;;;;6167630;28;20294;-79
2022/12/18 04:15:34;;;;;;;9.97;7.20;;;;;;;;;;6165884;29;20388;-79
2022/12/18 04:18:42;;;;;;;8.47;6.57;;;;;;;;;;6168992;28;20296;-79
2022/12/18 04:21:47;;;;;;;9.33;6.97;;;;;;;;;;6190150;28;20292;-78
2022/12/18 04:24:53;;;;;;;10.87;6.67;;;;;;;;;;6189360;28;20318;-79
2022/12/18 04:28:06;;;;;;;10.30;7.07;;;;;;;;;;6195735;28;20301;-79
2022/12/18 04:31:13;;;;;;;12.13;7.60;;;;;;;;;;6193447;28;20276;-79
2022/12/18 04:34:22;;;;;;;13.77;7.00;;;;;;;;;;6188962;28;20301;-78
2022/12/18 04:37:30;;;;;;;8.57;7.03;;;;;;;;;;6174913;28;20396;-80
2022/12/18 04:40:35;;;;;;;8.93;7.27;;;;;;;;;;6167925;28;20414;-79
2022/12/18 04:43:42;;;;;;;9.50;6.37;;;;;;;;;;6164761;28;20297;-79
2022/12/18 04:46:47;;;;;;;9.77;6.67;;;;;;;;;;6166535;28;20272;-78
2022/12/18 04:49:54;;;;;;;8.00;6.40;;;;;;;;;;6165697;28;20296;-78
2022/12/18 04:52:59;;;;;;;11.30;7.43;;;;;;;;;;6166208;28;20289;-79
2022/12/18 04:56:05;;;;;;;11.77;7.57;;;;;;;;;;6166022;28;20277;-79
2022/12/18 04:59:11;;;;;;;10.13;6.93;;;;;;;;;;6165576;28;20297;-78
2022/12/18 05:02:16;;;;;;;10.73;6.83;;;;;;;;;;6165464;28;20281;-78
2022/12/18 05:05:23;;;;;;;10.63;6.77;;;;;;;;;;6164767;29;20581;-79
2022/12/18 05:08:28;;;;;;;9.63;6.80;;;;;;;;;;6165608;28;20304;-79
2022/12/18 05:11:33;;;;;;;10.73;7.07;;;;;;;;;;6183476;28;20267;-79
2022/12/18 05:14:38;;;;;;;10.83;6.90;;;;;;;;;;6189802;28;20495;-79
2022/12/18 05:17:43;;;;;;;11.53;6.97;;;;;;;;;;6188053;28;20295;-78
2022/12/18 05:20:55;;;;;;;10.67;7.03;;;;;;;;;;6188910;28;20276;-78
2022/12/18 05:24:00;;;;;;;11.80;6.43;;;;;;;;;;6188972;28;20467;-78
2022/12/18 05:27:05;;;;;;;10.77;6.60;;;;;;;;;;6213026;28;20300;-78
2022/12/18 05:30:12;;;;;;;12.83;6.77;;;;;;;;;;6213555;28;20536;-78
2022/12/18 05:33:17;;;;;;;11.37;7.50;;;;;;;;;;6212937;28;20307;-79
2022/12/18 05:36:24;;;;;;;10.30;6.07;;;;;;;;;;6213524;28;20354;-79
2022/12/18 05:39:30;;;;;;;10.37;6.67;;;;;;;;;;6195558;28;20328;-79
2022/12/18 05:42:35;;;;;;;11.73;7.33;;;;;;;;;;6223476;28;20296;-77
2022/12/18 05:45:40;;;;;;;9.80;6.43;;;;;;;;;;6213575;28;20288;-78
2022/12/18 05:48:46;;;;;;;9.07;6.67;;;;;;;;;;6212552;28;20376;-78
2022/12/18 05:51:53;;;;;;;9.83;6.30;;;;;;;;;;6213283;28;20272;-79
2022/12/18 05:54:58;;;;;;;11.63;6.67;;;;;;;;;;6212172;28;20311;-78
2022/12/18 05:58:04;;;;;;;11.30;5.70;;;;;;;;;;6211862;28;20301;-78
2022/12/18 06:01:11;;;;;;;11.20;6.13;;;;;;;;;;6213326;28;20270;-79
2022/12/18 06:04:16;;;;;;;10.17;5.80;;;;;;;;;;6217231;28;20311;-79
2022/12/18 06:07:22;;;;;;;8.53;6.67;;;;;;;;;;6211983;28;20588;-79
2022/12/18 06:10:27;;;;;;;7.27;5.67;;;;;;;;;;6204014;28;20265;-79
2022/12/18 06:13:32;;;;;;;10.53;6.57;;;;;;;;;;6187836;28;20596;-79
2022/12/18 06:16:37;;;;;;;10.37;6.03;;;;;;;;;;6171642;28;20271;-79
2022/12/18 06:19:43;;;;;;;8.63;6.17;;;;;;;;;;6187760;28;20305;-78
2022/12/18 06:22:49;;;;;;;8.37;6.33;;;;;;;;;;6187863;28;20297;-78
2022/12/18 06:25:54;;;;;;;8.57;5.90;;;;;;;;;;6187794;28;20291;-78
2022/12/18 06:28:59;;;;;;;8.63;6.07;;;;;;;;;;6187980;28;20383;-78
2022/12/18 06:32:04;;;;;;;7.73;5.77;;;;;;;;;;6187702;28;20431;-78
2022/12/18 06:35:10;;;;;;;10.67;6.50;;;;;;;;;;6188088;28;20427;-79
2022/12/18 06:38:16;;;;;;;10.37;6.97;;;;;;;;;;6187412;28;20581;-78
2022/12/18 06:41:22;;;;;;;9.40;6.87;;;;;;;;;;6188043;28;20271;-78
2022/12/18 06:44:27;;;;;;;11.10;6.27;;;;;;;;;;6187540;28;20308;-78
2022/12/18 06:47:32;;;;;;;11.63;6.53;;;;;;;;;;6187352;28;20606;-78
2022/12/18 06:50:37;;;;;;;12.37;6.33;;;;;;;;;;6187523;28;20271;-78
2022/12/18 06:53:44;;;;;;;9.33;6.43;;;;;;;;;;6193917;28;20297;-78
2022/12/18 06:56:48;;;;;;;12.93;6.33;;;;;;;;;;6174562;28;20288;-78
2022/12/18 06:59:54;;;;;;;12.23;6.87;;;;;;;;;;6187290;28;20428;-78
2022/12/18 07:02:59;;;;;;;9.73;6.50;;;;;;;;;;6186592;28;20296;-77
2022/12/18 07:06:04;;;;;;;8.43;6.53;;;;;;;;;;6187668;28;20292;-79
2022/12/18 07:09:11;;;;;;;10.93;7.43;;;;;;;;;;6186576;28;20304;-79
2022/12/18 07:12:16;;;;;;;11.07;7.80;;;;;;;;;;6209684;28;20266;-78
2022/12/18 07:15:21;;;;;;;13.03;7.13;;;;;;;;;;6211227;28;20271;-78
2022/12/18 07:18:27;;;;;;;10.23;7.03;;;;;;;;;;6211792;28;20302;-78
2022/12/18 07:21:32;;;;;;;11.20;6.70;;;;;;;;;;6212348;28;20276;-79
2022/12/18 07:24:38;;;;;;;14.53;7.50;;;;;;;;;;6216517;28;20294;-78
2022/12/18 07:27:43;;;;;;;9.93;7.03;;;;;;;;;;6217138;28;20297;-79
2022/12/18 07:30:48;;;;;;;12.13;7.13;;;;;;;;;;6221882;28;20272;-78
2022/12/18 07:33:54;;;;;;;12.13;7.30;;;;;;;;;;6216087;28;20299;-78
2022/12/18 07:36:59;;;;;;;11.13;7.10;;;;;;;;;;6215712;28;20284;-80
2022/12/18 07:40:06;;;;;;;13.53;7.20;;;;;;;;;;6216928;28;20276;-79
2022/12/18 07:43:13;;;;;;;12.10;6.93;;;;;;;;;;6215205;28;20291;-78
2022/12/18 07:46:18;;;;;;;9.83;6.63;;;;;;;;;;6216217;28;20293;-78
2022/12/18 07:49:23;;;;;;;10.00;6.97;;;;;;;;;;6197924;28;20615;-77
2022/12/18 07:52:28;;;;;;;14.33;8.20;;;;;;;;;;6215572;28;20296;-78
2022/12/18 07:55:35;;;;;;;9.50;7.73;;;;;;;;;;6198473;28;20276;-79
2022/12/18 07:59:00;;;;;;;12.07;7.87;;;;;;;;;;6215366;28;20301;-77
2022/12/18 08:02:05;;;;;;;12.67;8.27;;;;;;;;;;6214520;28;20281;-79
2022/12/18 08:05:14;;;;;;;16.77;8.27;;;;;;;;;;6190727;28;20296;-79
2022/12/18 08:08:19;;;;;;;13.97;8.50;;;;;;;;;;6200630;28;20309;-78
2022/12/18 08:11:27;;;;;;;13.67;8.03;;;;;;;;;;6175992;28;20445;-79
2022/12/18 08:14:33;;;;;;;14.03;7.93;;;;;;;;;;6165753;29;20306;-79
2022/12/18 08:17:38;;;;;;;13.90;7.53;;;;;;;;;;6166861;28;20561;-77
2022/12/18 08:20:43;;;;;;;15.57;8.53;;;;;;;;;;6167155;28;20275;-78
2022/12/18 08:23:49;;;;;;;14.50;8.17;;;;;;;;;;6167335;28;20306;-77
2022/12/18 08:26:57;;;;;;;12.80;8.23;;;;;;;;;;6167454;28;20293;-77
2022/12/18 08:30:22;;;;;;;15.87;8.13;;;;;;;;;;6165081;29;20275;-78
2022/12/18 08:33:29;;;;;;;14.37;8.83;;;;;;;;;;6166151;28;20593;-77
2022/12/18 08:36:34;;;;;;;13.47;8.33;;;;;;;;;;6165438;29;20271;-77
2022/12/18 08:39:39;;;;;;;13.67;8.03;;;;;;;;;;6166571;28;20298;-78
2022/12/18 08:46:08;;;;;;;16.27;8.50;;;;;;;;;;6167405;28;20473;-77
2022/12/18 08:49:14;;;;;;;14.43;8.63;;;;;;;;;;6165275;28;20295;-78
2022/12/18 08:52:19;;;;;;;13.03;7.60;;;;;;;;;;6150175;28;20465;-78
2022/12/18 08:55:24;;;;;;;13.37;8.00;;;;;;;;;;6171697;29;20271;-79
2022/12/18 08:58:31;;;;;;;11.23;7.60;;;;;;;;;;6165162;28;20483;-79
2022/12/18 09:01:38;;;;;;;14.13;8.30;;;;;;;;;;6166242;28;20275;-78
2022/12/18 09:04:43;;;;;;;13.53;8.47;;;;;;;;;;6178639;28;20306;-79
2022/12/18 09:07:50;;;;;;;14.13;8.63;;;;;;;;;;6172639;28;20313;-79
2022/12/18 09:10:56;;;;;;;13.27;8.30;;;;;;;;;;6191316;28;20275;-75
2022/12/18 09:14:03;;;;;;;12.73;7.20;;;;;;;;;;6189475;28;20484;-75
2022/12/18 09:17:09;;;;;;;13.77;7.57;;;;;;;;;;6189479;28;20272;-81
2022/12/18 09:20:14;;;;;;;11.60;7.97;;;;;;;;;;6203048;28;20233;-82
2022/12/18 09:23:20;;;;;;;12.63;8.10;;;;;;;;;;6189734;28;20522;-76
2022/12/18 09:26:25;;;;;;;11.70;7.63;;;;;;;;;;6172783;28;20279;-76
2022/12/18 09:29:33;;;;;;;11.17;7.63;;;;;;;;;;6173403;28;20311;-78
2022/12/18 09:32:38;;;;;;;16.43;8.50;;;;;;;;;;6189027;28;20309;-77
2022/12/18 09:35:44;;;;;;;13.23;8.07;;;;;;;;;;6188592;28;20270;-77
2022/12/18 09:38:49;;;;;;;14.73;7.47;;;;;;;;;;6171781;28;20334;-75
2022/12/18 09:46:33;;;;;;;10.23;7.27;;;;;;;;;;6066152;29;20384;-77
2022/12/18 09:49:42;;;;;;;12.07;7.27;;;;;;;;;;6091673;29;20607;-77
2022/12/18 09:52:50;;;;;;;10.27;7.27;;;;;;;;;;6091840;29;20593;-74
2022/12/18 09:55:56;;;;;;;10.43;7.87;;;;;;;;;;6091438;29;20286;-75
2022/12/18 09:59:03;;;;;;;14.47;7.90;;;;;;;;;;6091362;29;20603;-75
2022/12/18 10:02:35;;;;;;;11.93;7.57;;;;;;;;;;6075950;29;20308;-76
2022/12/18 10:05:48;;;;;;;13.80;8.23;;;;;;;;;;6075906;29;20300;-76
2022/12/18 10:08:57;;;;;;;10.07;7.43;;;;;;;;;;6106495;28;20488;-75
2022/12/18 10:12:09;;;;;;;13.73;7.80;;;;;;;;;;6187823;28;20274;-75
2022/12/18 10:15:20;;;;;;;12.23;7.93;;;;;;;;;;6189042;28;20270;-79
2022/12/18 10:18:37;;;;;;;9.73;7.17;;;;;;;;;;6171002;28;20298;-80
2022/12/18 10:21:47;;;;;;;11.93;7.20;;;;;;;;;;6195779;28;20269;-82
2022/12/18 10:24:56;;;;;;;12.70;8.00;;;;;;;;;;6171410;28;20526;-82
2022/12/18 10:28:11;;;;;;;9.07;7.53;;;;;;;;;;6170672;28;20309;-81
2022/12/18 10:31:19;;;;;;;9.53;7.90;;;;;;;;;;6192066;28;20262;-81
2022/12/18 10:34:27;;;;;;;9.47;7.20;;;;;;;;;;6179713;28;20256;-82
2022/12/18 10:37:32;;;;;;;13.80;8.67;;;;;;;;;;6187816;28;20294;-82
2022/12/18 10:40:51;;;;;;;12.67;8.93;;;;;;;;;;6186521;28;20273;-83
2022/12/18 10:44:17;;;;;;;11.43;7.20;;;;;;;;;;6188249;28;20313;-81
2022/12/18 10:47:22;;;;;;;15.90;8.30;;;;;;;;;;6170836;28;20300;-82
2022/12/18 10:50:31;;;;;;;10.03;7.20;;;;;;;;;;6187965;28;20311;-82
2022/12/18 10:53:58;;;;;;;13.37;7.93;;;;;;;;;;6170662;28;20299;-83
2022/12/18 10:57:17;;;;;;;13.27;8.00;;;;;;;;;;6188436;28;20337;-81
2022/12/18 11:00:27;;;;;;;12.70;7.93;;;;;;;;;;6188350;28;20273;-81
2022/12/18 11:03:35;;;;;;;16.17;8.87;;;;;;;;;;6187700;28;20311;-81
2022/12/18 11:06:56;;;;;;;10.67;7.07;;;;;;;;;;6154612;28;20530;-81
2022/12/18 11:10:03;;;;;;;12.73;7.93;;;;;;;;;;6187429;28;20295;-80
2022/12/18 11:13:17;;;;;;;9.60;7.50;;;;;;;;;;6188165;28;20300;-81
2022/12/18 11:16:21;;;;;;;12.40;7.73;;;;;;;;;;6155116;28;20273;-81
2022/12/18 11:19:34;;;;;;;10.50;7.50;;;;;;;;;;6170219;28;20305;-82
2022/12/18 11:22:41;;;;;;;9.20;6.73;;;;;;;;;;6186829;28;20633;-78
2022/12/18 11:25:54;;;;;;;12.13;7.23;;;;;;;;;;6187844;28;20266;-79
2022/12/18 11:29:10;;;;;;;9.97;7.47;;;;;;;;;;6187103;28;20301;-80
2022/12/18 11:32:36;;;;;;;11.33;7.67;;;;;;;;;;6186574;28;20278;-79
2022/12/18 11:35:45;;;;;;;10.20;7.30;;;;;;;;;;6187190;28;20274;-79
2022/12/18 11:38:55;;;;;;;9.90;6.83;;;;;;;;;;6169313;28;20309;-79
2022/12/18 11:42:12;;;;;;;12.57;7.57;;;;;;;;;;6188293;28;20273;-79
2022/12/18 11:45:32;;;;;;;10.43;6.93;;;;;;;;;;6179728;28;20277;-80
2022/12/18 11:48:42;;;;;;;10.07;7.10;;;;;;;;;;6188791;28;20302;-80
2022/12/18 11:51:55;;;;;;;8.80;6.50;;;;;;;;;;6187819;28;20269;-80
2022/12/18 11:55:06;;;;;;;11.23;7.20;;;;;;;;;;6186949;28;20269;-80
2022/12/18 11:58:23;;;;;;;11.07;7.17;;;;;;;;;;6169545;28;20296;-80
2022/12/18 12:01:46;;;;;;;10.30;6.73;;;;;;;;;;6169682;28;20286;-81
2022/12/18 12:05:19;;;;;;;10.83;6.97;;;;;;;;;;6186082;28;20310;-80
2022/12/18 12:08:31;;;;;;;10.90;6.93;;;;;;;;;;6187880;28;20576;-80
2022/12/18 12:11:47;;;;;;;8.97;6.83;;;;;;;;;;6191771;28;20277;-80
2022/12/18 12:15:00;;;;;;;9.20;6.73;;;;;;;;;;6190116;28;20596;-79
2022/12/18 12:18:14;;;;;;;9.27;7.07;;;;;;;;;;6189846;28;20583;-79
2022/12/18 12:21:25;;;;;;;10.87;6.33;;;;;;;;;;6189809;28;20282;-80
2022/12/18 12:24:40;;;;;;;10.43;6.37;;;;;;;;;;6191107;28;20302;-79
2022/12/18 12:27:51;;;;;;;16.53;6.03;;;;;;;;;;6189525;28;20302;-79
2022/12/18 12:31:04;;;;;;;14.30;7.30;;;;;;;;;;6191377;28;20299;-82
2022/12/18 12:34:18;;;;;;;9.43;6.80;;;;;;;;;;6189434;28;20299;-80
2022/12/18 12:37:30;;;;;;;13.70;6.67;;;;;;;;;;6190274;28;20471;-80
2022/12/18 12:40:37;;;;;;;9.63;6.67;;;;;;;;;;6189872;28;20554;-80
2022/12/18 12:44:01;;;;;;;8.80;6.30;;;;;;;;;;6189145;28;20305;-81
2022/12/18 12:47:12;;;;;;;7.67;5.83;;;;;;;;;;6190313;28;20271;-80
2022/12/18 12:50:20;;;;;;;12.60;6.70;;;;;;;;;;6190763;28;20300;-81
2022/12/18 12:53:30;;;;;;;8.27;6.93;;;;;;;;;;6190935;28;20294;-80
2022/12/18 12:56:41;;;;;;;9.50;6.57;;;;;;;;;;6191998;28;20266;-80
2022/12/18 12:59:53;;;;;;;12.30;7.27;;;;;;;;;;6173580;28;20304;-81
2022/12/18 13:03:08;;;;;;;9.40;5.90;;;;;;;;;;6190768;28;20292;-80
2022/12/18 13:06:17;;;;;;;11.20;6.57;;;;;;;;;;6214246;28;20297;-79
2022/12/18 13:09:23;;;;;;;9.83;6.37;;;;;;;;;;6213447;28;20482;-80
2022/12/18 13:16:10;;;;;;;11.67;5.83;;;;;;;;;;6116375;28;20503;-80
2022/12/18 13:19:25;;;;;;;8.27;6.10;;;;;;;;;;6199108;28;20368;-83
2022/12/18 13:22:32;;;;;;;8.80;6.07;;;;;;;;;;6214848;28;20302;-85
2022/12/18 13:25:39;;;;;;;8.40;5.90;;;;;;;;;;6194214;28;20273;-78
2022/12/18 13:28:54;;;;;;;5.97;4.70;;;;;;;;;;6213673;28;20296;-78
2022/12/18 13:32:02;;;;;;;5.90;5.37;;;;;;;;;;6213145;28;20269;-79
2022/12/18 13:35:40;;;;;;;10.80;5.87;;;;;;;;;;6196923;28;20460;-78
2022/12/18 13:38:48;;;;;;;10.43;5.80;;;;;;;;;;6211861;28;20316;-79
2022/12/18 13:41:54;;;;;;;9.60;5.83;;;;;;;;;;6213866;28;20269;-79
2022/12/18 13:44:59;;;;;;;8.50;4.93;;;;;;;;;;6212796;28;20307;-76
2022/12/18 13:48:12;;;;;;;7.60;5.33;;;;;;;;;;6212716;28;20285;-76
2022/12/18 13:51:19;;;;;;;7.27;5.07;;;;;;;;;;6196066;28;20295;-80
2022/12/18 13:54:30;;;;;;;9.43;5.17;;;;;;;;;;6212883;28;20304;-83
2022/12/18 13:57:38;;;;;;;7.67;5.37;;;;;;;;;;6213159;28;20575;-82
2022/12/18 14:00:44;;;;;;;6.00;5.40;;;;;;;;;;6213587;28;20277;-80
2022/12/18 14:03:51;;;;;;;7.27;5.60;;;;;;;;;;6212743;28;20299;-84
2022/12/18 14:06:59;;;;;;;11.57;5.43;;;;;;;;;;6214163;28;20277;-84
2022/12/18 14:10:12;;;;;;;5.57;4.70;;;;;;;;;;6195912;28;20380;-79
2022/12/18 14:13:39;;;;;;;6.60;4.97;;;;;;;;;;6197591;28;20292;-79
2022/12/18 14:16:44;;;;;;;5.80;4.80;;;;;;;;;;6195838;28;20279;-78
2022/12/18 14:19:53;;;;;;;5.30;4.80;;;;;;;;;;6212283;28;20308;-79
2022/12/18 14:22:59;;;;;;;6.30;4.77;;;;;;;;;;6212640;28;20295;-80
2022/12/18 14:26:22;;;;;;;8.27;5.10;;;;;;;;;;6195376;28;20285;-78
2022/12/18 14:29:29;;;;;;;6.03;4.90;;;;;;;;;;6194981;28;20297;-81
2022/12/18 14:32:35;;;;;;;11.53;4.80;;;;;;;;;;6211645;28;20295;-78
2022/12/18 14:35:42;;;;;;;7.87;4.90;;;;;;;;;;6211852;28;20278;-77
2022/12/18 14:38:50;;;;;;;8.30;4.47;;;;;;;;;;6212611;28;20395;-77
2022/12/18 14:41:55;;;;;;;10.60;4.90;;;;;;;;;;6212507;28;20282;-77
2022/12/18 14:45:33;;;;;;;5.87;4.37;;;;;;;;;;6211461;28;20423;-75
2022/12/18 14:48:49;;;;;;;5.00;4.50;;;;;;;;;;6211946;28;20297;-76
2022/12/18 14:51:57;;;;;;;9.27;4.60;;;;;;;;;;6212453;28;20308;-80
2022/12/18 14:55:03;;;;;;;4.37;3.97;;;;;;;;;;6194414;28;20279;-77
2022/12/18 14:58:15;;;;;;;5.00;4.47;;;;;;;;;;6211842;28;20299;-76
2022/12/18 15:01:29;;;;;;;7.90;4.37;;;;;;;;;;6211411;28;20604;-78
2022/12/18 15:04:36;;;;;;;5.37;4.57;;;;;;;;;;6191134;28;20559;-79
2022/12/18 15:07:44;;;;;;;4.53;4.10;;;;;;;;;;6211482;28;20299;-79
2022/12/18 15:10:50;;;;;;;9.00;4.63;;;;;;;;;;6201335;28;20451;-80
2022/12/18 15:13:56;;;;;;;8.43;3.90;;;;;;;;;;6170702;28;20304;-80
2022/12/18 15:17:07;;;;;;;7.00;4.10;;;;;;;;;;6163110;28;20277;-81
2022/12/18 15:20:13;;;;;;;6.27;3.93;;;;;;;;;;6188095;28;20466;-84
2022/12/18 15:23:21;;;;;;;5.87;3.80;;;;;;;;;;6195849;28;20410;-87
2022/12/18 15:26:26;;;;;;;7.90;4.07;;;;;;;;;;6194156;28;20265;-81
2022/12/18 15:29:32;;;;;;;4.70;3.30;;;;;;;;;;6189959;28;20301;-82
2022/12/18 15:32:44;;;;;;;3.47;3.10;;;;;;;;;;6172864;28;20294;-80
2022/12/18 15:35:58;;;;;;;4.13;3.73;;;;;;;;;;6170841;28;20456;-80
2022/12/18 15:39:05;;;;;;;4.70;3.30;;;;;;;;;;6170158;28;20313;-75
2022/12/18 15:45:35;;;;;;;4.90;2.80;;;;;;;;;;6193167;28;20273;-84
2022/12/18 15:48:42;;;;;;;9.37;3.57;;;;;;;;;;6174365;28;20301;-77
2022/12/18 15:51:51;;;;;;;8.43;3.60;;;;;;;;;;6191956;28;20605;-76
2022/12/18 15:58:20;;;;;;;2.77;2.57;;;;;;;;;;6192053;28;20474;-83
2022/12/18 16:01:28;;;;;;;2.90;2.70;;;;;;;;;;6175295;28;20273;-83
2022/12/18 16:04:42;;;;;;;3.37;2.80;;;;;;;;;;6202206;28;20309;-80
2022/12/18 16:08:04;;;;;;;3.33;2.63;;;;;;;;;;6172654;28;20588;-80
2022/12/18 16:11:37;;;;;;;4.67;2.23;;;;;;;;;;6191534;28;20308;-82
2022/12/18 16:14:42;;;;;;;6.53;2.90;;;;;;;;;;6174671;28;20307;-79
2022/12/18 16:17:48;;;;;;;4.40;2.47;;;;;;;;;;6191310;28;20304;-78
2022/12/18 16:20:54;;;;;;;2.73;2.50;;;;;;;;;;6191841;28;20267;-84
2022/12/18 16:23:59;;;;;;;4.63;2.70;;;;;;;;;;6191384;28;20293;-85
2022/12/18 16:27:06;;;;;;;2.67;2.47;;;;;;;;;;6191106;28;20444;-81
2022/12/18 16:30:16;;;;;;;7.40;2.40;;;;;;;;;;6192374;28;20270;-91
2022/12/18 16:33:22;;;;;;;2.67;2.47;;;;;;;;;;6192585;28;20307;-77
2022/12/18 16:36:27;;;;;;;4.43;2.73;;;;;;;;;;6200220;28;20273;-80
2022/12/18 16:39:33;;;;;;;4.30;2.40;;;;;;;;;;6192217;28;20608;-81
2022/12/18 16:42:42;;;;;;;3.03;2.40;;;;;;;;;;6190822;28;20305;-81
2022/12/18 16:45:47;;;;;;;4.00;2.20;;;;;;;;;;6191556;28;20273;-86
2022/12/18 16:48:53;;;;;;;4.53;2.40;;;;;;;;;;6189473;28;20386;-78
2022/12/18 16:52:02;;;;;;;6.90;2.73;;;;;;;;;;6190613;28;20297;-78
2022/12/18 16:55:08;;;;;;;2.57;2.13;;;;;;;;;;6190148;28;20274;-85
2022/12/18 16:58:15;;;;;;;6.90;1.90;;;;;;;;;;6188950;28;20297;-78
2022/12/18 17:01:21;;;;;;;5.73;2.20;;;;;;;;;;6190532;28;20289;-79
2022/12/18 17:04:26;;;;;;;5.27;1.90;;;;;;;;;;6202118;28;20304;-80
2022/12/18 17:07:32;;;;;;;7.67;2.23;;;;;;;;;;6213923;28;20305;-81
2022/12/18 17:10:39;;;;;;;3.77;1.77;;;;;;;;;;6198327;28;20265;-75
2022/12/18 17:13:45;;;;;;;4.10;2.03;;;;;;;;;;6213609;28;20301;-78
2022/12/18 17:16:50;;;;;;;2.03;1.83;;;;;;;;;;6214294;28;20269;-81
2022/12/18 17:20:15;;;;;;;9.37;2.40;;;;;;;;;;6213822;28;20265;-80
2022/12/18 17:23:21;;;;;;;6.83;2.20;;;;;;;;;;6195603;28;20316;-79
2022/12/18 17:26:29;;;;;;;5.93;2.50;;;;;;;;;;6197202;28;20473;-76
2022/12/18 17:29:43;;;;;;;5.30;2.50;;;;;;;;;;6219256;28;20301;-82
2022/12/18 17:32:52;;;;;;;4.37;2.13;;;;;;;;;;6216462;28;20293;-79
2022/12/18 17:35:59;;;;;;;2.93;2.30;;;;;;;;;;6189914;28;20282;-79
2022/12/18 17:39:06;;;;;;;3.70;2.17;;;;;;;;;;6195836;28;20293;-76
2022/12/18 17:42:11;;;;;;;4.63;2.10;;;;;;;;;;6213315;28;20552;-76
2022/12/18 17:45:21;;;;;;;6.40;1.93;;;;;;;;;;6213663;28;20287;-80
2022/12/18 17:48:27;;;;;;;3.20;2.03;;;;;;;;;;6202295;28;20328;-84
2022/12/18 17:51:33;;;;;;;3.60;2.07;;;;;;;;;;6222656;28;20271;-81
2022/12/18 17:54:40;;;;;;;5.80;2.27;;;;;;;;;;6212343;28;20300;-77
2022/12/18 17:57:46;;;;;;;3.10;2.00;;;;;;;;;;6194744;28;20293;-84
2022/12/18 18:00:53;;;;;;;4.57;2.07;;;;;;;;;;6213065;28;20308;-79
2022/12/18 18:04:00;;;;;;;6.07;1.93;;;;;;;;;;6179138;28;20305;-89
2022/12/18 18:07:06;;;;;;;5.83;2.70;;;;;;;;;;6218493;28;20275;-87
2022/12/18 18:10:16;;;;;;;2.27;1.97;;;;;;;;;;6215672;28;20236;-80
2022/12/18 18:16:52;;;;;;;4.17;2.00;;;;;;;;;;6213467;28;20257;-79
2022/12/18 18:19:59;;;;;;;3.07;2.23;;;;;;;;;;6212815;28;20293;-78
2022/12/18 18:23:05;;;;;;;5.03;1.97;;;;;;;;;;6212388;28;20296;-78
2022/12/18 18:26:11;;;;;;;3.97;2.40;;;;;;;;;;6212311;28;20277;-77
2022/12/18 18:29:29;;;;;;;6.10;2.20;;;;;;;;;;6195521;28;20473;-78
2022/12/18 18:32:42;;;;;;;7.73;2.23;;;;;;;;;;6212191;28;20298;-76
2022/12/18 18:35:47;;;;;;;4.83;2.50;;;;;;;;;;6212407;28;20270;-77
2022/12/18 18:39:00;;;;;;;4.87;2.17;;;;;;;;;;6211947;28;20305;-77
2022/12/18 18:42:07;;;;;;;4.23;2.07;;;;;;;;;;6211642;28;20274;-77
2022/12/18 18:45:12;;;;;;;2.43;2.03;;;;;;;;;;6212591;28;20537;-76
2022/12/18 18:48:19;;;;;;;9.80;2.70;;;;;;;;;;6211021;28;20305;-77
2022/12/18 18:51:24;;;;;;;6.60;2.43;;;;;;;;;;6211875;28;20275;-76
2022/12/18 18:54:36;;;;;;;5.37;2.20;;;;;;;;;;6212391;28;20305;-76
2022/12/18 18:57:45;;;;;;;4.37;1.90;;;;;;;;;;6214275;28;20455;-78
2022/12/18 19:00:56;;;;;;;9.23;2.37;;;;;;;;;;6213050;28;20270;-75
2022/12/18 19:04:02;;;;;;;9.07;2.30;;;;;;;;;;6208079;28;20499;-81
2022/12/18 19:07:10;;;;;;;2.67;2.43;;;;;;;;;;6171165;28;20275;-81
2022/12/18 19:10:17;;;;;;;5.70;2.30;;;;;;;;;;6164165;28;20281;-80